Аэропорт: Усть-Каменогорск. Усть-Каменогорск

ICAO: UASK

METAR:
2018/05/20 19:00
UASK 201900Z 12003MPS 9999 BKN110 06/01 Q1028 R12/090060 NOSIG RMK QFE745/0994
METAR:
Информация по данной станции не доступна